sensor_id;sensor_type;location;lat;lon;timestamp;P1;durP1;ratioP1;P2;durP2;ratioP2
10727;SDS011;5415;59.322;18.246;2023-02-21T00:02:35;4.20;;;2.43;;
10727;SDS011;5415;59.322;18.246;2023-02-21T00:05:21;5.23;;;1.50;;
10727;SDS011;5415;59.322;18.246;2023-02-21T00:08:05;2.13;;;1.20;;
10727;SDS011;5415;59.322;18.246;2023-02-21T00:10:50;1.77;;;1.50;;
10727;SDS011;5415;59.322;18.246;2023-02-21T00:13:35;2.40;;;2.00;;
10727;SDS011;5415;59.322;18.246;2023-02-21T00:16:22;2.47;;;1.10;;
10727;SDS011;5415;59.322;18.246;2023-02-21T00:19:07;1.10;;;1.00;;
10727;SDS011;5415;59.322;18.246;2023-02-21T00:21:52;0.93;;;0.93;;
10727;SDS011;5415;59.322;18.246;2023-02-21T00:24:37;1.30;;;1.20;;
10727;SDS011;5415;59.322;18.246;2023-02-21T00:27:22;2.63;;;1.20;;
10727;SDS011;5415;59.322;18.246;2023-02-21T00:30:09;3.40;;;1.50;;
10727;SDS011;5415;59.322;18.246;2023-02-21T00:32:56;2.07;;;1.60;;
10727;SDS011;5415;59.322;18.246;2023-02-21T00:35:40;1.50;;;1.30;;
10727;SDS011;5415;59.322;18.246;2023-02-21T00:38:25;2.40;;;1.80;;
10727;SDS011;5415;59.322;18.246;2023-02-21T00:41:09;1.93;;;1.37;;
10727;SDS011;5415;59.322;18.246;2023-02-21T00:43:54;2.63;;;1.50;;
10727;SDS011;5415;59.322;18.246;2023-02-21T00:46:39;1.40;;;1.30;;
10727;SDS011;5415;59.322;18.246;2023-02-21T00:49:26;1.33;;;1.10;;
10727;SDS011;5415;59.322;18.246;2023-02-21T00:52:10;2.20;;;1.47;;
10727;SDS011;5415;59.322;18.246;2023-02-21T00:54:55;2.13;;;1.30;;
10727;SDS011;5415;59.322;18.246;2023-02-21T00:57:39;1.53;;;1.30;;
10727;SDS011;5415;59.322;18.246;2023-02-21T01:00:24;1.23;;;1.13;;
10727;SDS011;5415;59.322;18.246;2023-02-21T01:03:09;2.00;;;1.40;;
10727;SDS011;5415;59.322;18.246;2023-02-21T01:05:55;1.43;;;1.33;;
10727;SDS011;5415;59.322;18.246;2023-02-21T01:08:40;1.30;;;1.10;;
10727;SDS011;5415;59.322;18.246;2023-02-21T01:11:26;1.70;;;1.40;;
10727;SDS011;5415;59.322;18.246;2023-02-21T01:14:10;2.87;;;1.30;;
10727;SDS011;5415;59.322;18.246;2023-02-21T01:16:55;1.67;;;1.17;;
10727;SDS011;5415;59.322;18.246;2023-02-21T01:19:40;2.17;;;1.40;;
10727;SDS011;5415;59.322;18.246;2023-02-21T01:22:26;1.67;;;1.53;;
10727;SDS011;5415;59.322;18.246;2023-02-21T01:25:10;1.87;;;1.40;;
10727;SDS011;5415;59.322;18.246;2023-02-21T01:27:56;6.20;;;1.50;;
10727;SDS011;5415;59.322;18.246;2023-02-21T01:30:41;3.23;;;1.30;;
10727;SDS011;5415;59.322;18.246;2023-02-21T01:33:25;2.10;;;1.50;;
10727;SDS011;5415;59.322;18.246;2023-02-21T01:36:10;1.60;;;1.30;;
10727;SDS011;5415;59.322;18.246;2023-02-21T01:38:56;1.67;;;1.33;;
10727;SDS011;5415;59.322;18.246;2023-02-21T01:41:40;2.20;;;1.40;;
10727;SDS011;5415;59.322;18.246;2023-02-21T01:44:30;3.20;;;1.50;;
10727;SDS011;5415;59.322;18.246;2023-02-21T01:47:18;3.37;;;2.03;;
10727;SDS011;5415;59.322;18.246;2023-02-21T01:50:05;2.13;;;1.70;;
10727;SDS011;5415;59.322;18.246;2023-02-21T01:52:54;1.70;;;1.40;;
10727;SDS011;5415;59.322;18.246;2023-02-21T01:55:40;1.70;;;1.60;;
10727;SDS011;5415;59.322;18.246;2023-02-21T01:58:26;2.40;;;2.00;;
10727;SDS011;5415;59.322;18.246;2023-02-21T02:01:15;4.10;;;2.93;;
10727;SDS011;5415;59.322;18.246;2023-02-21T02:04:08;4.63;;;2.83;;
10727;SDS011;5415;59.322;18.246;2023-02-21T02:06:52;5.70;;;3.60;;
10727;SDS011;5415;59.322;18.246;2023-02-21T02:09:36;3.77;;;2.80;;
10727;SDS011;5415;59.322;18.246;2023-02-21T02:15:36;4.53;;;2.10;;
10727;SDS011;5415;59.322;18.246;2023-02-21T02:18:17;2.93;;;1.80;;
10727;SDS011;5415;59.322;18.246;2023-02-21T02:21:22;3.50;;;1.80;;
10727;SDS011;5415;59.322;18.246;2023-02-21T02:24:25;3.80;;;1.80;;
10727;SDS011;5415;59.322;18.246;2023-02-21T02:27:23;2.83;;;1.90;;
10727;SDS011;5415;59.322;18.246;2023-02-21T02:36:29;2.97;;;1.80;;
10727;SDS011;5415;59.322;18.246;2023-02-21T02:39:04;2.73;;;2.00;;
10727;SDS011;5415;59.322;18.246;2023-02-21T02:41:44;2.67;;;2.00;;
10727;SDS011;5415;59.322;18.246;2023-02-21T02:44:19;2.73;;;2.20;;
10727;SDS011;5415;59.322;18.246;2023-02-21T02:46:51;2.10;;;1.90;;
10727;SDS011;5415;59.322;18.246;2023-02-21T02:49:22;4.83;;;2.10;;
10727;SDS011;5415;59.322;18.246;2023-02-21T02:51:57;5.27;;;2.00;;
10727;SDS011;5415;59.322;18.246;2023-02-21T02:54:29;4.07;;;2.40;;
10727;SDS011;5415;59.322;18.246;2023-02-21T02:56:56;3.27;;;2.20;;
10727;SDS011;5415;59.322;18.246;2023-02-21T02:59:25;2.67;;;2.27;;
10727;SDS011;5415;59.322;18.246;2023-02-21T03:01:59;3.87;;;2.50;;
10727;SDS011;5415;59.322;18.246;2023-02-21T03:04:58;2.30;;;2.10;;
10727;SDS011;5415;59.322;18.246;2023-02-21T03:07:40;3.40;;;2.43;;
10727;SDS011;5415;59.322;18.246;2023-02-21T03:10:16;2.43;;;2.00;;
10727;SDS011;5415;59.322;18.246;2023-02-21T03:12:47;2.77;;;2.27;;
10727;SDS011;5415;59.322;18.246;2023-02-21T03:15:21;2.87;;;2.00;;
10727;SDS011;5415;59.322;18.246;2023-02-21T03:17:53;2.30;;;2.10;;
10727;SDS011;5415;59.322;18.246;2023-02-21T03:20:25;2.43;;;2.20;;
10727;SDS011;5415;59.322;18.246;2023-02-21T03:22:56;3.40;;;2.10;;
10727;SDS011;5415;59.322;18.246;2023-02-21T03:25:26;2.77;;;2.17;;
10727;SDS011;5415;59.322;18.246;2023-02-21T03:27:56;2.40;;;2.20;;
10727;SDS011;5415;59.322;18.246;2023-02-21T03:30:25;2.43;;;2.23;;
10727;SDS011;5415;59.322;18.246;2023-02-21T03:32:55;2.53;;;2.10;;
10727;SDS011;5415;59.322;18.246;2023-02-21T03:35:23;2.37;;;2.07;;
10727;SDS011;5415;59.322;18.246;2023-02-21T03:37:56;2.67;;;1.87;;
10727;SDS011;5415;59.322;18.246;2023-02-21T03:40:25;2.40;;;2.20;;
10727;SDS011;5415;59.322;18.246;2023-02-21T03:42:54;2.13;;;1.93;;
10727;SDS011;5415;59.322;18.246;2023-02-21T03:45:23;2.53;;;2.23;;
10727;SDS011;5415;59.322;18.246;2023-02-21T03:47:50;2.30;;;2.10;;
10727;SDS011;5415;59.322;18.246;2023-02-21T03:50:17;3.00;;;2.33;;
10727;SDS011;5415;59.322;18.246;2023-02-21T03:52:44;2.80;;;2.27;;
10727;SDS011;5415;59.322;18.246;2023-02-21T03:55:14;2.70;;;2.30;;
10727;SDS011;5415;59.322;18.246;2023-02-21T03:57:41;2.67;;;1.97;;
10727;SDS011;5415;59.322;18.246;2023-02-21T04:00:09;2.20;;;2.00;;
10727;SDS011;5415;59.322;18.246;2023-02-21T04:02:37;2.53;;;2.30;;
10727;SDS011;5415;59.322;18.246;2023-02-21T04:05:05;2.50;;;2.30;;
10727;SDS011;5415;59.322;18.246;2023-02-21T04:07:32;3.13;;;2.17;;
10727;SDS011;5415;59.322;18.246;2023-02-21T04:10:00;2.40;;;2.20;;
10727;SDS011;5415;59.322;18.246;2023-02-21T04:12:28;2.77;;;2.20;;
10727;SDS011;5415;59.322;18.246;2023-02-21T04:14:55;3.27;;;2.10;;
10727;SDS011;5415;59.322;18.246;2023-02-21T04:17:23;2.20;;;2.00;;
10727;SDS011;5415;59.322;18.246;2023-02-21T04:19:50;3.23;;;2.30;;
10727;SDS011;5415;59.322;18.246;2023-02-21T04:22:17;2.67;;;2.20;;
10727;SDS011;5415;59.322;18.246;2023-02-21T04:24:46;2.17;;;1.97;;
10727;SDS011;5415;59.322;18.246;2023-02-21T04:27:14;2.10;;;1.90;;
10727;SDS011;5415;59.322;18.246;2023-02-21T04:29:43;2.23;;;2.03;;
10727;SDS011;5415;59.322;18.246;2023-02-21T04:32:12;1.80;;;1.70;;
10727;SDS011;5415;59.322;18.246;2023-02-21T04:34:39;2.00;;;1.80;;
10727;SDS011;5415;59.322;18.246;2023-02-21T04:37:06;2.50;;;2.30;;
10727;SDS011;5415;59.322;18.246;2023-02-21T04:39:33;2.23;;;2.03;;
10727;SDS011;5415;59.322;18.246;2023-02-21T04:42:01;1.87;;;1.77;;
10727;SDS011;5415;59.322;18.246;2023-02-21T04:44:28;2.30;;;2.10;;
10727;SDS011;5415;59.322;18.246;2023-02-21T04:46:58;2.30;;;2.10;;
10727;SDS011;5415;59.322;18.246;2023-02-21T04:49:25;2.57;;;2.33;;
10727;SDS011;5415;59.322;18.246;2023-02-21T04:51:53;3.37;;;2.50;;
10727;SDS011;5415;59.322;18.246;2023-02-21T04:54:21;2.50;;;2.30;;
10727;SDS011;5415;59.322;18.246;2023-02-21T04:56:49;2.67;;;1.90;;
10727;SDS011;5415;59.322;18.246;2023-02-21T04:59:16;2.80;;;2.07;;
10727;SDS011;5415;59.322;18.246;2023-02-21T05:01:43;2.07;;;1.93;;
10727;SDS011;5415;59.322;18.246;2023-02-21T05:04:12;2.50;;;2.30;;
10727;SDS011;5415;59.322;18.246;2023-02-21T05:06:42;4.47;;;2.30;;
10727;SDS011;5415;59.322;18.246;2023-02-21T05:09:09;2.23;;;2.03;;
10727;SDS011;5415;59.322;18.246;2023-02-21T05:11:38;2.33;;;2.13;;
10727;SDS011;5415;59.322;18.246;2023-02-21T05:14:05;2.83;;;2.30;;
10727;SDS011;5415;59.322;18.246;2023-02-21T05:16:33;2.73;;;2.43;;
10727;SDS011;5415;59.322;18.246;2023-02-21T05:19:00;3.17;;;2.50;;
10727;SDS011;5415;59.322;18.246;2023-02-21T05:21:32;3.00;;;2.23;;
10727;SDS011;5415;59.322;18.246;2023-02-21T05:24:02;2.43;;;2.23;;
10727;SDS011;5415;59.322;18.246;2023-02-21T05:26:32;2.77;;;2.30;;
10727;SDS011;5415;59.322;18.246;2023-02-21T05:29:00;2.50;;;2.30;;
10727;SDS011;5415;59.322;18.246;2023-02-21T05:31:28;2.43;;;2.23;;
10727;SDS011;5415;59.322;18.246;2023-02-21T05:33:55;2.47;;;2.27;;
10727;SDS011;5415;59.322;18.246;2023-02-21T05:36:22;3.43;;;2.10;;
10727;SDS011;5415;59.322;18.246;2023-02-21T05:38:52;2.17;;;1.97;;
10727;SDS011;5415;59.322;18.246;2023-02-21T05:41:21;2.60;;;2.30;;
10727;SDS011;5415;59.322;18.246;2023-02-21T05:43:49;2.67;;;2.20;;
10727;SDS011;5415;59.322;18.246;2023-02-21T05:46:21;2.30;;;2.10;;
10727;SDS011;5415;59.322;18.246;2023-02-21T05:48:50;2.97;;;2.07;;
10727;SDS011;5415;59.322;18.246;2023-02-21T05:51:19;2.53;;;2.33;;
10727;SDS011;5415;59.322;18.246;2023-02-21T05:53:46;3.20;;;2.70;;
10727;SDS011;5415;59.322;18.246;2023-02-21T05:56:15;2.40;;;2.20;;
10727;SDS011;5415;59.322;18.246;2023-02-21T05:58:44;3.80;;;2.20;;
10727;SDS011;5415;59.322;18.246;2023-02-21T06:01:11;2.50;;;2.23;;
10727;SDS011;5415;59.322;18.246;2023-02-21T06:03:39;2.90;;;2.13;;
10727;SDS011;5415;59.322;18.246;2023-02-21T06:06:07;4.43;;;2.27;;
10727;SDS011;5415;59.322;18.246;2023-02-21T06:08:40;6.03;;;2.17;;
10727;SDS011;5415;59.322;18.246;2023-02-21T06:11:08;3.17;;;2.37;;
10727;SDS011;5415;59.322;18.246;2023-02-21T06:13:40;3.50;;;2.13;;
10727;SDS011;5415;59.322;18.246;2023-02-21T06:16:07;3.40;;;2.50;;
10727;SDS011;5415;59.322;18.246;2023-02-21T06:18:34;2.47;;;2.17;;
10727;SDS011;5415;59.322;18.246;2023-02-21T06:21:01;2.80;;;2.47;;
10727;SDS011;5415;59.322;18.246;2023-02-21T06:23:28;4.37;;;2.60;;
10727;SDS011;5415;59.322;18.246;2023-02-21T06:25:56;2.80;;;2.47;;
10727;SDS011;5415;59.322;18.246;2023-02-21T06:28:26;2.43;;;2.23;;
10727;SDS011;5415;59.322;18.246;2023-02-21T06:30:55;4.67;;;2.60;;
10727;SDS011;5415;59.322;18.246;2023-02-21T06:33:23;3.67;;;2.80;;
10727;SDS011;5415;59.322;18.246;2023-02-21T06:35:51;3.43;;;3.00;;
10727;SDS011;5415;59.322;18.246;2023-02-21T06:38:18;3.07;;;2.67;;
10727;SDS011;5415;59.322;18.246;2023-02-21T06:40:45;3.10;;;2.80;;
10727;SDS011;5415;59.322;18.246;2023-02-21T06:43:13;3.23;;;2.93;;
10727;SDS011;5415;59.322;18.246;2023-02-21T06:45:40;3.00;;;2.70;;
10727;SDS011;5415;59.322;18.246;2023-02-21T06:48:12;3.57;;;2.60;;
10727;SDS011;5415;59.322;18.246;2023-02-21T06:50:40;3.37;;;2.50;;
10727;SDS011;5415;59.322;18.246;2023-02-21T06:53:08;3.07;;;2.40;;
10727;SDS011;5415;59.322;18.246;2023-02-21T06:55:35;2.63;;;2.43;;
10727;SDS011;5415;59.322;18.246;2023-02-21T06:58:02;2.97;;;2.67;;
10727;SDS011;5415;59.322;18.246;2023-02-21T07:00:30;2.70;;;2.50;;
10727;SDS011;5415;59.322;18.246;2023-02-21T07:02:57;3.70;;;2.93;;
10727;SDS011;5415;59.322;18.246;2023-02-21T07:05:26;4.03;;;2.83;;
10727;SDS011;5415;59.322;18.246;2023-02-21T07:07:58;3.77;;;2.73;;
10727;SDS011;5415;59.322;18.246;2023-02-21T07:10:26;4.20;;;2.97;;
10727;SDS011;5415;59.322;18.246;2023-02-21T07:12:54;3.10;;;2.80;;
10727;SDS011;5415;59.322;18.246;2023-02-21T07:15:22;5.00;;;3.00;;
10727;SDS011;5415;59.322;18.246;2023-02-21T07:17:49;3.57;;;2.87;;
10727;SDS011;5415;59.322;18.246;2023-02-21T07:20:16;4.93;;;2.93;;
10727;SDS011;5415;59.322;18.246;2023-02-21T07:22:45;5.17;;;2.93;;
10727;SDS011;5415;59.322;18.246;2023-02-21T07:25:13;4.10;;;3.30;;
10727;SDS011;5415;59.322;18.246;2023-02-21T07:27:41;3.03;;;2.73;;
10727;SDS011;5415;59.322;18.246;2023-02-21T07:30:10;3.70;;;2.80;;
10727;SDS011;5415;59.322;18.246;2023-02-21T07:32:38;5.70;;;2.83;;
10727;SDS011;5415;59.322;18.246;2023-02-21T07:35:05;3.30;;;2.93;;
10727;SDS011;5415;59.322;18.246;2023-02-21T07:37:33;3.37;;;3.07;;
10727;SDS011;5415;59.322;18.246;2023-02-21T07:40:03;4.10;;;3.37;;
10727;SDS011;5415;59.322;18.246;2023-02-21T07:42:32;3.70;;;3.40;;
10727;SDS011;5415;59.322;18.246;2023-02-21T07:44:59;5.13;;;4.03;;
10727;SDS011;5415;59.322;18.246;2023-02-21T07:47:26;4.50;;;4.10;;
10727;SDS011;5415;59.322;18.246;2023-02-21T07:49:54;3.83;;;3.40;;
10727;SDS011;5415;59.322;18.246;2023-02-21T07:52:21;6.43;;;4.23;;
10727;SDS011;5415;59.322;18.246;2023-02-21T07:54:51;5.07;;;4.57;;
10727;SDS011;5415;59.322;18.246;2023-02-21T07:57:20;4.90;;;4.27;;
10727;SDS011;5415;59.322;18.246;2023-02-21T07:59:48;4.67;;;3.97;;
10727;SDS011;5415;59.322;18.246;2023-02-21T08:02:16;5.03;;;4.07;;
10727;SDS011;5415;59.322;18.246;2023-02-21T08:04:43;4.27;;;3.80;;
10727;SDS011;5415;59.322;18.246;2023-02-21T08:07:10;4.83;;;3.70;;
10727;SDS011;5415;59.322;18.246;2023-02-21T08:09:37;4.73;;;4.13;;
10727;SDS011;5415;59.322;18.246;2023-02-21T08:12:06;4.73;;;4.17;;
10727;SDS011;5415;59.322;18.246;2023-02-21T08:14:35;4.83;;;3.93;;
10727;SDS011;5415;59.322;18.246;2023-02-21T08:17:04;4.77;;;4.23;;
10727;SDS011;5415;59.322;18.246;2023-02-21T08:19:31;4.53;;;3.97;;
10727;SDS011;5415;59.322;18.246;2023-02-21T08:21:58;4.20;;;3.33;;
10727;SDS011;5415;59.322;18.246;2023-02-21T08:24:25;4.20;;;3.80;;
10727;SDS011;5415;59.322;18.246;2023-02-21T08:26:53;4.57;;;4.17;;
10727;SDS011;5415;59.322;18.246;2023-02-21T08:29:20;5.77;;;4.27;;
10727;SDS011;5415;59.322;18.246;2023-02-21T08:31:50;4.33;;;3.93;;
10727;SDS011;5415;59.322;18.246;2023-02-21T08:34:17;5.17;;;3.60;;
10727;SDS011;5415;59.322;18.246;2023-02-21T08:36:45;3.63;;;3.30;;
10727;SDS011;5415;59.322;18.246;2023-02-21T08:39:12;4.67;;;3.63;;
10727;SDS011;5415;59.322;18.246;2023-02-21T08:41:40;4.10;;;3.70;;
10727;SDS011;5415;59.322;18.246;2023-02-21T08:44:09;6.20;;;3.60;;
10727;SDS011;5415;59.322;18.246;2023-02-21T08:46:37;3.90;;;3.50;;
10727;SDS011;5415;59.322;18.246;2023-02-21T08:49:06;4.03;;;3.60;;
10727;SDS011;5415;59.322;18.246;2023-02-21T08:51:35;3.67;;;3.03;;
10727;SDS011;5415;59.322;18.246;2023-02-21T08:54:02;4.13;;;3.73;;
10727;SDS011;5415;59.322;18.246;2023-02-21T08:56:29;4.20;;;3.57;;
10727;SDS011;5415;59.322;18.246;2023-02-21T08:58:58;4.03;;;3.63;;
10727;SDS011;5415;59.322;18.246;2023-02-21T09:01:29;4.67;;;4.10;;
10727;SDS011;5415;59.322;18.246;2023-02-21T09:03:58;4.43;;;4.00;;
10727;SDS011;5415;59.322;18.246;2023-02-21T09:06:27;4.87;;;4.20;;
10727;SDS011;5415;59.322;18.246;2023-02-21T09:08:54;4.00;;;3.50;;
10727;SDS011;5415;59.322;18.246;2023-02-21T09:11:22;4.10;;;3.70;;
10727;SDS011;5415;59.322;18.246;2023-02-21T09:13:49;4.30;;;3.90;;
10727;SDS011;5415;59.322;18.246;2023-02-21T09:16:19;4.07;;;3.37;;
10727;SDS011;5415;59.322;18.246;2023-02-21T09:18:54;4.90;;;3.70;;
10727;SDS011;5415;59.322;18.246;2023-02-21T09:21:23;4.20;;;3.80;;
10727;SDS011;5415;59.322;18.246;2023-02-21T09:23:53;4.53;;;4.10;;
10727;SDS011;5415;59.322;18.246;2023-02-21T09:26:23;4.30;;;3.90;;
10727;SDS011;5415;59.322;18.246;2023-02-21T09:28:50;4.23;;;3.83;;
10727;SDS011;5415;59.322;18.246;2023-02-21T09:31:18;5.27;;;3.77;;
10727;SDS011;5415;59.322;18.246;2023-02-21T09:33:45;5.40;;;4.00;;
10727;SDS011;5415;59.322;18.246;2023-02-21T09:36:14;4.93;;;4.30;;
10727;SDS011;5415;59.322;18.246;2023-02-21T09:38:44;4.23;;;3.83;;
10727;SDS011;5415;59.322;18.246;2023-02-21T09:41:13;5.03;;;4.17;;
10727;SDS011;5415;59.322;18.246;2023-02-21T09:43:42;6.53;;;4.63;;
10727;SDS011;5415;59.322;18.246;2023-02-21T09:46:12;5.10;;;4.20;;
10727;SDS011;5415;59.322;18.246;2023-02-21T09:48:44;4.50;;;4.10;;
10727;SDS011;5415;59.322;18.246;2023-02-21T09:51:12;6.33;;;4.57;;
10727;SDS011;5415;59.322;18.246;2023-02-21T09:53:42;4.17;;;3.77;;
10727;SDS011;5415;59.322;18.246;2023-02-21T09:56:17;4.63;;;4.23;;
10727;SDS011;5415;59.322;18.246;2023-02-21T09:58:47;4.80;;;4.10;;
10727;SDS011;5415;59.322;18.246;2023-02-21T10:01:19;5.50;;;4.40;;
10727;SDS011;5415;59.322;18.246;2023-02-21T10:03:52;5.00;;;4.37;;
10727;SDS011;5415;59.322;18.246;2023-02-21T10:06:32;3.80;;;3.50;;
10727;SDS011;5415;59.322;18.246;2023-02-21T10:09:15;3.13;;;2.83;;
10727;SDS011;5415;59.322;18.246;2023-02-21T10:11:56;4.30;;;3.90;;
10727;SDS011;5415;59.322;18.246;2023-02-21T10:14:31;4.77;;;3.80;;
10727;SDS011;5415;59.322;18.246;2023-02-21T10:17:11;5.60;;;4.17;;
10727;SDS011;5415;59.322;18.246;2023-02-21T10:19:44;4.23;;;3.83;;
10727;SDS011;5415;59.322;18.246;2023-02-21T10:22:17;5.57;;;4.30;;
10727;SDS011;5415;59.322;18.246;2023-02-21T10:24:46;4.63;;;4.17;;
10727;SDS011;5415;59.322;18.246;2023-02-21T10:27:17;4.67;;;4.23;;
10727;SDS011;5415;59.322;18.246;2023-02-21T10:29:47;4.63;;;4.17;;
10727;SDS011;5415;59.322;18.246;2023-02-21T10:32:21;4.73;;;4.03;;
10727;SDS011;5415;59.322;18.246;2023-02-21T10:34:49;4.70;;;4.07;;
10727;SDS011;5415;59.322;18.246;2023-02-21T10:37:27;4.50;;;3.90;;
10727;SDS011;5415;59.322;18.246;2023-02-21T10:40:05;5.30;;;4.47;;
10727;SDS011;5415;59.322;18.246;2023-02-21T10:42:51;4.90;;;4.40;;
10727;SDS011;5415;59.322;18.246;2023-02-21T10:45:23;5.20;;;4.53;;
10727;SDS011;5415;59.322;18.246;2023-02-21T10:47:57;5.47;;;4.60;;
10727;SDS011;5415;59.322;18.246;2023-02-21T10:50:36;4.23;;;3.80;;
10727;SDS011;5415;59.322;18.246;2023-02-21T10:53:09;4.60;;;4.17;;
10727;SDS011;5415;59.322;18.246;2023-02-21T10:58:46;4.20;;;3.90;;
10727;SDS011;5415;59.322;18.246;2023-02-21T11:01:16;4.70;;;4.20;;
10727;SDS011;5415;59.322;18.246;2023-02-21T11:03:46;5.10;;;4.30;;
10727;SDS011;5415;59.322;18.246;2023-02-21T11:06:25;4.40;;;3.97;;
10727;SDS011;5415;59.322;18.246;2023-02-21T11:08:57;5.63;;;4.17;;
10727;SDS011;5415;59.322;18.246;2023-02-21T11:14:27;6.27;;;4.23;;
10727;SDS011;5415;59.322;18.246;2023-02-21T11:17:12;4.23;;;3.83;;
10727;SDS011;5415;59.322;18.246;2023-02-21T11:19:43;4.13;;;3.73;;
10727;SDS011;5415;59.322;18.246;2023-02-21T11:22:13;4.40;;;3.90;;
10727;SDS011;5415;59.322;18.246;2023-02-21T11:24:52;4.90;;;4.10;;
10727;SDS011;5415;59.322;18.246;2023-02-21T11:27:25;5.00;;;4.37;;
10727;SDS011;5415;59.322;18.246;2023-02-21T11:29:56;4.80;;;3.70;;
10727;SDS011;5415;59.322;18.246;2023-02-21T11:32:26;3.73;;;3.43;;
10727;SDS011;5415;59.322;18.246;2023-02-21T11:35:00;4.50;;;4.10;;
10727;SDS011;5415;59.322;18.246;2023-02-21T11:37:33;5.23;;;4.47;;
10727;SDS011;5415;59.322;18.246;2023-02-21T11:40:20;4.43;;;3.60;;
10727;SDS011;5415;59.322;18.246;2023-02-21T11:45:42;4.60;;;4.20;;
10727;SDS011;5415;59.322;18.246;2023-02-21T11:48:15;4.73;;;4.33;;
10727;SDS011;5415;59.322;18.246;2023-02-21T11:50:48;5.17;;;4.47;;
10727;SDS011;5415;59.322;18.246;2023-02-21T11:53:18;5.00;;;4.50;;
10727;SDS011;5415;59.322;18.246;2023-02-21T11:55:53;4.40;;;4.00;;
10727;SDS011;5415;59.322;18.246;2023-02-21T11:58:28;4.87;;;3.83;;
10727;SDS011;5415;59.322;18.246;2023-02-21T12:01:02;4.80;;;4.33;;
10727;SDS011;5415;59.322;18.246;2023-02-21T12:03:39;3.63;;;3.23;;
10727;SDS011;5415;59.322;18.246;2023-02-21T12:06:36;3.90;;;3.60;;
10727;SDS011;5415;59.322;18.246;2023-02-21T12:09:09;4.50;;;3.90;;
10727;SDS011;5415;59.322;18.246;2023-02-21T12:11:45;5.97;;;4.43;;
10727;SDS011;5415;59.322;18.246;2023-02-21T12:14:32;4.27;;;3.87;;
10727;SDS011;5415;59.322;18.246;2023-02-21T12:23:10;5.07;;;4.57;;
10727;SDS011;5415;59.322;18.246;2023-02-21T12:25:46;4.80;;;4.27;;
10727;SDS011;5415;59.322;18.246;2023-02-21T12:28:29;4.40;;;4.00;;
10727;SDS011;5415;59.322;18.246;2023-02-21T12:31:06;4.90;;;4.47;;
10727;SDS011;5415;59.322;18.246;2023-02-21T12:33:45;4.77;;;4.30;;
10727;SDS011;5415;59.322;18.246;2023-02-21T12:39:34;4.10;;;3.73;;
10727;SDS011;5415;59.322;18.246;2023-02-21T12:42:18;3.87;;;3.53;;
10727;SDS011;5415;59.322;18.246;2023-02-21T12:45:06;4.10;;;3.70;;
10727;SDS011;5415;59.322;18.246;2023-02-21T12:47:50;4.40;;;4.00;;
10727;SDS011;5415;59.322;18.246;2023-02-21T12:50:24;4.33;;;3.83;;
10727;SDS011;5415;59.322;18.246;2023-02-21T12:52:57;4.17;;;3.77;;
10727;SDS011;5415;59.322;18.246;2023-02-21T12:55:31;4.23;;;3.83;;
10727;SDS011;5415;59.322;18.246;2023-02-21T12:58:03;4.30;;;3.90;;
10727;SDS011;5415;59.322;18.246;2023-02-21T13:00:42;5.70;;;4.00;;
10727;SDS011;5415;59.322;18.246;2023-02-21T13:03:21;4.50;;;4.10;;
10727;SDS011;5415;59.322;18.246;2023-02-21T13:06:03;5.10;;;4.53;;
10727;SDS011;5415;59.322;18.246;2023-02-21T13:08:46;5.00;;;4.30;;
10727;SDS011;5415;59.322;18.246;2023-02-21T13:11:24;5.67;;;4.70;;
10727;SDS011;5415;59.322;18.246;2023-02-21T13:13:57;5.33;;;4.83;;
10727;SDS011;5415;59.322;18.246;2023-02-21T13:16:26;5.87;;;4.53;;
10727;SDS011;5415;59.322;18.246;2023-02-21T13:18:54;5.50;;;3.97;;
10727;SDS011;5415;59.322;18.246;2023-02-21T13:21:31;5.70;;;4.17;;
10727;SDS011;5415;59.322;18.246;2023-02-21T13:24:22;4.60;;;3.37;;
10727;SDS011;5415;59.322;18.246;2023-02-21T13:27:12;4.47;;;3.77;;
10727;SDS011;5415;59.322;18.246;2023-02-21T13:29:58;3.73;;;3.40;;
10727;SDS011;5415;59.322;18.246;2023-02-21T13:32:29;5.17;;;4.37;;
10727;SDS011;5415;59.322;18.246;2023-02-21T13:35:04;3.70;;;3.40;;
10727;SDS011;5415;59.322;18.246;2023-02-21T13:37:35;3.53;;;3.23;;
10727;SDS011;5415;59.322;18.246;2023-02-21T13:40:17;4.03;;;3.30;;
10727;SDS011;5415;59.322;18.246;2023-02-21T13:42:59;3.73;;;3.30;;
10727;SDS011;5415;59.322;18.246;2023-02-21T13:45:29;3.63;;;3.33;;
10727;SDS011;5415;59.322;18.246;2023-02-21T13:48:16;4.30;;;3.47;;
10727;SDS011;5415;59.322;18.246;2023-02-21T13:50:55;3.47;;;3.17;;
10727;SDS011;5415;59.322;18.246;2023-02-21T13:53:24;3.93;;;3.43;;
10727;SDS011;5415;59.322;18.246;2023-02-21T13:58:45;4.30;;;3.27;;
10727;SDS011;5415;59.322;18.246;2023-02-21T14:07:42;2.90;;;2.70;;
10727;SDS011;5415;59.322;18.246;2023-02-21T14:13:20;3.50;;;3.20;;
10727;SDS011;5415;59.322;18.246;2023-02-21T14:15:57;3.57;;;3.27;;
10727;SDS011;5415;59.322;18.246;2023-02-21T14:18:37;3.70;;;3.40;;
10727;SDS011;5415;59.322;18.246;2023-02-21T14:21:09;3.60;;;3.30;;
10727;SDS011;5415;59.322;18.246;2023-02-21T14:23:41;4.13;;;3.67;;
10727;SDS011;5415;59.322;18.246;2023-02-21T14:26:34;3.63;;;3.30;;
10727;SDS011;5415;59.322;18.246;2023-02-21T14:29:09;3.63;;;3.33;;
10727;SDS011;5415;59.322;18.246;2023-02-21T14:32:21;3.43;;;3.13;;
10727;SDS011;5415;59.322;18.246;2023-02-21T14:34:51;4.50;;;3.30;;
10727;SDS011;5415;59.322;18.246;2023-02-21T14:37:23;3.73;;;3.43;;
10727;SDS011;5415;59.322;18.246;2023-02-21T14:39:57;4.10;;;3.43;;
10727;SDS011;5415;59.322;18.246;2023-02-21T14:42:33;4.00;;;3.60;;
10727;SDS011;5415;59.322;18.246;2023-02-21T14:54:40;4.23;;;3.80;;
10727;SDS011;5415;59.322;18.246;2023-02-21T14:57:39;3.90;;;3.60;;
10727;SDS011;5415;59.322;18.246;2023-02-21T15:00:22;5.13;;;3.80;;
10727;SDS011;5415;59.322;18.246;2023-02-21T15:02:59;4.13;;;3.73;;
10727;SDS011;5415;59.322;18.246;2023-02-21T15:05:41;4.20;;;3.77;;
10727;SDS011;5415;59.322;18.246;2023-02-21T15:08:20;3.77;;;3.47;;
10727;SDS011;5415;59.322;18.246;2023-02-21T15:10:49;4.13;;;3.57;;
10727;SDS011;5415;59.322;18.246;2023-02-21T15:13:22;4.73;;;3.73;;
10727;SDS011;5415;59.322;18.246;2023-02-21T15:15:54;3.87;;;3.47;;
10727;SDS011;5415;59.322;18.246;2023-02-21T15:18:24;4.17;;;3.60;;
10727;SDS011;5415;59.322;18.246;2023-02-21T15:21:05;4.43;;;3.93;;
10727;SDS011;5415;59.322;18.246;2023-02-21T15:23:37;4.70;;;3.93;;
10727;SDS011;5415;59.322;18.246;2023-02-21T15:26:15;4.33;;;3.93;;
10727;SDS011;5415;59.322;18.246;2023-02-21T15:29:01;4.13;;;3.67;;
10727;SDS011;5415;59.322;18.246;2023-02-21T15:31:31;4.50;;;4.10;;
10727;SDS011;5415;59.322;18.246;2023-02-21T15:33:59;4.83;;;3.80;;
10727;SDS011;5415;59.322;18.246;2023-02-21T15:36:28;4.07;;;3.67;;
10727;SDS011;5415;59.322;18.246;2023-02-21T15:38:59;3.63;;;3.33;;
10727;SDS011;5415;59.322;18.246;2023-02-21T15:41:31;4.40;;;3.80;;
10727;SDS011;5415;59.322;18.246;2023-02-21T15:44:03;3.67;;;3.37;;
10727;SDS011;5415;59.322;18.246;2023-02-21T15:46:36;4.97;;;4.30;;
10727;SDS011;5415;59.322;18.246;2023-02-21T15:49:08;3.57;;;3.27;;
10727;SDS011;5415;59.322;18.246;2023-02-21T15:51:45;4.57;;;3.97;;
10727;SDS011;5415;59.322;18.246;2023-02-21T15:54:23;4.20;;;3.80;;
10727;SDS011;5415;59.322;18.246;2023-02-21T15:57:00;4.93;;;4.50;;
10727;SDS011;5415;59.322;18.246;2023-02-21T15:59:29;5.80;;;5.20;;
10727;SDS011;5415;59.322;18.246;2023-02-21T16:02:10;4.23;;;3.83;;
10727;SDS011;5415;59.322;18.246;2023-02-21T16:04:41;5.03;;;4.47;;
10727;SDS011;5415;59.322;18.246;2023-02-21T16:07:15;4.80;;;4.30;;
10727;SDS011;5415;59.322;18.246;2023-02-21T16:09:46;5.07;;;4.67;;
10727;SDS011;5415;59.322;18.246;2023-02-21T16:12:26;5.87;;;4.90;;
10727;SDS011;5415;59.322;18.246;2023-02-21T16:14:56;6.10;;;4.67;;
10727;SDS011;5415;59.322;18.246;2023-02-21T16:17:26;5.10;;;4.60;;
10727;SDS011;5415;59.322;18.246;2023-02-21T16:19:58;6.73;;;5.43;;